createdAt,value
2019-01-31T00:02:25.745Z,45.50
2019-01-31T00:05:16.607Z,43.50
2019-01-31T00:08:16.226Z,45.07
2019-01-31T00:11:01.739Z,42.23
2019-01-31T00:14:18.681Z,43.03
2019-01-31T00:17:00.910Z,40.07
2019-01-31T00:19:43.083Z,47.63
2019-01-31T00:23:03.424Z,42.03
2019-01-31T00:26:08.333Z,46.50
2019-01-31T00:28:50.465Z,54.70
2019-01-31T00:31:53.294Z,46.13
2019-01-31T00:34:53.547Z,48.30
2019-01-31T00:38:21.603Z,49.33
2019-01-31T00:41:12.268Z,46.67
2019-01-31T00:44:00.592Z,52.50
2019-01-31T00:46:48.736Z,48.60
2019-01-31T00:49:45.757Z,47.23
2019-01-31T00:52:28.103Z,47.87
2019-01-31T00:55:19.380Z,52.07
2019-01-31T00:58:22.809Z,54.13
2019-01-31T01:01:20.285Z,54.87
2019-01-31T01:04:19.437Z,51.27
2019-01-31T01:07:27.558Z,60.07
2019-01-31T01:10:12.390Z,54.53
2019-01-31T01:13:03.540Z,51.83
2019-01-31T01:15:54.543Z,62.20
2019-01-31T01:18:33.798Z,59.00
2019-01-31T01:21:15.983Z,58.03
2019-01-31T01:24:01.539Z,54.93
2019-01-31T01:26:49.685Z,58.90
2019-01-31T01:29:29.218Z,62.23
2019-01-31T01:32:23.213Z,56.67
2019-01-31T01:35:14.172Z,65.87
2019-01-31T01:37:53.310Z,60.73
2019-01-31T01:40:50.804Z,58.10
2019-01-31T01:43:48.022Z,63.50
2019-01-31T01:46:35.696Z,58.13
2019-01-31T01:49:17.927Z,61.33
2019-01-31T01:52:11.360Z,55.73
2019-01-31T01:55:12.564Z,60.47
2019-01-31T01:58:23.741Z,67.07
2019-01-31T02:01:02.833Z,65.33
2019-01-31T02:03:45.405Z,64.73
2019-01-31T02:06:24.726Z,65.27
2019-01-31T02:09:30.198Z,59.53
2019-01-31T02:12:16.321Z,59.23
2019-01-31T02:15:07.530Z,63.27
2019-01-31T02:18:11.069Z,67.37
2019-01-31T02:21:15.954Z,66.97
2019-01-31T02:24:16.461Z,69.07
2019-01-31T02:27:18.773Z,63.20
2019-01-31T02:30:15.691Z,66.50
2019-01-31T02:32:52.247Z,69.17
2019-01-31T02:35:50.015Z,64.83
2019-01-31T02:38:46.100Z,63.67
2019-01-31T02:41:22.670Z,68.33
2019-01-31T02:44:13.973Z,59.60
2019-01-31T02:47:25.199Z,65.60
2019-01-31T02:50:13.595Z,62.77
2019-01-31T02:53:22.894Z,69.13
2019-01-31T02:55:59.741Z,68.30
2019-01-31T02:58:38.877Z,63.20
2019-01-31T03:01:18.058Z,73.77
2019-01-31T03:04:12.446Z,66.77
2019-01-31T03:06:57.504Z,69.03
2019-01-31T03:09:54.655Z,73.60
2019-01-31T03:12:23.708Z,74.93
2019-01-31T03:15:00.325Z,63.37
2019-01-31T03:17:45.192Z,73.00
2019-01-31T03:20:41.088Z,65.73
2019-01-31T03:23:32.155Z,69.47
2019-01-31T03:26:23.292Z,67.93
2019-01-31T03:29:08.671Z,76.47
2019-01-31T03:32:09.627Z,76.40
2019-01-31T03:34:51.926Z,74.07
2019-01-31T03:38:04.214Z,77.47
2019-01-31T03:40:52.487Z,73.53
2019-01-31T03:43:47.386Z,75.00
2019-01-31T03:46:56.546Z,74.93
2019-01-31T03:49:59.845Z,73.67
2019-01-31T03:52:52.855Z,73.13
2019-01-31T03:55:29.420Z,74.33
2019-01-31T03:58:08.403Z,71.77
2019-01-31T04:01:19.085Z,75.30
2019-01-31T04:03:55.663Z,72.13
2019-01-31T04:06:27.334Z,72.73
2019-01-31T04:08:59.038Z,73.20
2019-01-31T04:11:30.717Z,83.53
2019-01-31T04:14:02.395Z,72.27
2019-01-31T04:16:34.266Z,76.60
2019-01-31T04:19:06.277Z,73.63
2019-01-31T04:21:37.976Z,85.37
2019-01-31T04:24:09.716Z,75.07
2019-01-31T04:26:41.492Z,76.53
2019-01-31T04:29:13.167Z,75.97
2019-01-31T04:31:45.044Z,76.63
2019-01-31T04:34:16.720Z,78.87
2019-01-31T04:36:48.475Z,80.67
2019-01-31T04:39:20.168Z,79.43
2019-01-31T04:41:51.838Z,80.20
2019-01-31T04:44:23.516Z,80.43
2019-01-31T04:46:55.184Z,80.63
2019-01-31T04:49:26.866Z,80.00
2019-01-31T04:51:58.529Z,83.47
2019-01-31T04:54:30.220Z,78.23
2019-01-31T04:57:02.157Z,79.33
2019-01-31T04:59:33.861Z,82.93
2019-01-31T05:02:05.902Z,79.63
2019-01-31T05:04:37.964Z,79.00
2019-01-31T05:07:09.642Z,74.43
2019-01-31T05:09:41.318Z,76.07
2019-01-31T05:12:13.072Z,76.87
2019-01-31T05:14:45.128Z,80.53
2019-01-31T05:17:16.870Z,74.70
2019-01-31T05:19:48.840Z,80.23
2019-01-31T05:22:20.885Z,78.47
2019-01-31T05:24:52.736Z,89.47
2019-01-31T05:27:24.702Z,81.47
2019-01-31T05:29:59.696Z,79.83
2019-01-31T05:32:33.992Z,79.47
2019-01-31T05:35:08.630Z,78.97
2019-01-31T05:37:40.406Z,84.30
2019-01-31T05:40:14.941Z,79.07
2019-01-31T05:42:46.631Z,82.13
2019-01-31T05:45:18.564Z,80.70
2019-01-31T05:47:50.531Z,79.07
2019-01-31T05:50:22.478Z,79.03
2019-01-31T05:52:54.499Z,84.33
2019-01-31T05:55:26.645Z,81.30
2019-01-31T05:57:59.202Z,82.97
2019-01-31T06:00:32.791Z,81.33
2019-01-31T06:03:04.774Z,84.53
2019-01-31T06:05:36.921Z,84.73
2019-01-31T06:08:08.608Z,79.83
2019-01-31T06:10:40.284Z,80.13
2019-01-31T06:13:12.029Z,86.53
2019-01-31T06:15:43.705Z,82.77
2019-01-31T06:18:15.383Z,79.23
2019-01-31T06:20:47.064Z,84.73
2019-01-31T06:23:20.526Z,75.13
2019-01-31T06:25:52.192Z,82.13
2019-01-31T06:28:23.870Z,79.40
2019-01-31T06:30:55.547Z,82.47
2019-01-31T06:33:28.484Z,85.17
2019-01-31T06:36:00.457Z,86.40
2019-01-31T06:38:32.160Z,81.80
2019-01-31T06:41:03.907Z,80.90
2019-01-31T06:43:35.755Z,83.17
2019-01-31T06:46:07.431Z,84.03
2019-01-31T06:48:39.128Z,83.33
2019-01-31T06:51:11.066Z,86.87
2019-01-31T06:53:42.748Z,89.03
2019-01-31T06:56:14.800Z,85.90
2019-01-31T06:58:46.476Z,83.73
2019-01-31T07:01:18.525Z,83.23
2019-01-31T07:03:50.593Z,81.50
2019-01-31T07:06:22.655Z,86.63
2019-01-31T07:08:54.324Z,89.00
2019-01-31T07:11:30.074Z,78.13
2019-01-31T07:13:59.363Z,80.67
2019-01-31T07:16:31.051Z,90.70
2019-01-31T07:19:02.724Z,83.60
2019-01-31T07:21:34.416Z,92.27
2019-01-31T07:24:06.096Z,74.80
2019-01-31T07:26:37.776Z,82.10
2019-01-31T07:29:09.813Z,74.30
2019-01-31T07:31:41.557Z,88.47
2019-01-31T07:34:13.254Z,86.80
2019-01-31T07:36:45.057Z,80.07
2019-01-31T07:39:17.262Z,80.63
2019-01-31T07:41:49.304Z,87.50
2019-01-31T07:44:20.985Z,72.40
2019-01-31T07:46:52.665Z,81.00
2019-01-31T07:49:24.767Z,78.37
2019-01-31T07:51:57.005Z,85.23
2019-01-31T07:54:28.811Z,78.80
2019-01-31T07:57:00.490Z,82.40
2019-01-31T07:59:32.168Z,79.67
2019-01-31T08:02:03.845Z,82.23
2019-01-31T08:04:35.528Z,84.83
2019-01-31T08:07:07.228Z,73.83
2019-01-31T08:09:39.059Z,81.00
2019-01-31T08:12:10.744Z,76.37
2019-01-31T08:14:42.442Z,75.80
2019-01-31T08:17:14.110Z,71.97
2019-01-31T08:19:45.822Z,77.97
2019-01-31T08:22:17.500Z,73.03
2019-01-31T08:24:49.340Z,75.97
2019-01-31T08:27:21.008Z,76.67
2019-01-31T08:29:52.709Z,73.03
2019-01-31T08:32:24.633Z,76.57
2019-01-31T08:34:56.318Z,70.90
2019-01-31T08:37:27.989Z,67.07
2019-01-31T08:39:59.697Z,74.63
2019-01-31T08:42:31.408Z,69.57
2019-01-31T08:45:03.345Z,70.53
2019-01-31T08:47:35.080Z,66.10
2019-01-31T08:50:12.152Z,66.43
2019-01-31T08:52:43.821Z,71.40
2019-01-31T08:55:15.749Z,67.23
2019-01-31T08:57:47.746Z,73.83
2019-01-31T09:00:23.301Z,69.07
2019-01-31T09:02:54.986Z,63.87
2019-01-31T09:05:26.720Z,66.40
2019-01-31T09:07:58.659Z,67.80
2019-01-31T09:10:37.367Z,67.13
2019-01-31T09:13:11.322Z,61.93
2019-01-31T09:15:43.267Z,67.80
2019-01-31T09:18:15.407Z,69.90
2019-01-31T09:20:57.558Z,74.27
2019-01-31T09:23:55.502Z,69.37
2019-01-31T09:26:50.972Z,66.57
2019-01-31T09:29:30.071Z,71.90
2019-01-31T09:32:12.565Z,77.77
2019-01-31T09:35:06.866Z,67.87
2019-01-31T09:38:02.691Z,66.50
2019-01-31T09:40:45.126Z,72.03
2019-01-31T09:43:47.062Z,65.63
2019-01-31T09:46:44.513Z,69.97
2019-01-31T09:50:01.710Z,67.83
2019-01-31T09:52:44.112Z,67.97
2019-01-31T09:55:23.379Z,66.73
2019-01-31T09:58:27.869Z,71.70
2019-01-31T10:01:37.818Z,70.27
2019-01-31T10:04:44.018Z,71.03
2019-01-31T10:07:56.712Z,65.73
2019-01-31T10:11:00.325Z,68.87
2019-01-31T10:14:00.656Z,68.77
2019-01-31T10:16:56.066Z,65.13
2019-01-31T10:19:35.777Z,62.90
2019-01-31T10:22:12.486Z,72.93
2019-01-31T10:25:12.903Z,67.53
2019-01-31T10:28:04.128Z,71.37
2019-01-31T10:30:56.989Z,62.30
2019-01-31T10:34:00.064Z,64.17
2019-01-31T10:36:51.789Z,72.57
2019-01-31T10:39:45.930Z,71.20
2019-01-31T10:42:37.051Z,62.30
2019-01-31T10:45:31.202Z,68.23
2019-01-31T10:48:22.376Z,67.53
2019-01-31T10:51:13.228Z,71.27
2019-01-31T10:54:13.705Z,68.13
2019-01-31T10:57:11.227Z,66.93
2019-01-31T11:00:18.626Z,75.50
2019-01-31T11:03:20.816Z,60.47
2019-01-31T11:06:28.588Z,61.53
2019-01-31T11:09:41.541Z,66.27
2019-01-31T11:12:29.297Z,65.50
2019-01-31T11:15:35.508Z,61.57
2019-01-31T11:18:26.883Z,58.47
2019-01-31T11:21:23.628Z,59.07
2019-01-31T11:24:05.910Z,59.13
2019-01-31T11:26:57.361Z,62.87
2019-01-31T11:29:42.507Z,63.33
2019-01-31T11:32:24.593Z,61.47
2019-01-31T11:35:01.193Z,60.77
2019-01-31T11:37:52.000Z,53.73
2019-01-31T11:40:49.427Z,62.90
2019-01-31T11:43:31.885Z,55.73
2019-01-31T11:46:28.784Z,59.10
2019-01-31T11:49:13.964Z,59.63
2019-01-31T11:52:16.259Z,55.13
2019-01-31T11:55:13.484Z,54.23
2019-01-31T11:58:16.646Z,57.57
2019-01-31T12:00:49.425Z,57.20
2019-01-31T12:03:21.397Z,53.53
2019-01-31T12:05:53.068Z,50.63
2019-01-31T12:08:24.807Z,53.20
2019-01-31T12:10:57.831Z,60.80
2019-01-31T12:13:29.514Z,55.67
2019-01-31T12:16:01.311Z,61.13
2019-01-31T12:18:32.978Z,57.73
2019-01-31T12:21:04.748Z,53.67
2019-01-31T12:23:36.422Z,53.63
2019-01-31T12:26:08.104Z,65.87
2019-01-31T12:28:39.805Z,62.00
2019-01-31T12:31:12.654Z,58.67
2019-01-31T12:33:45.314Z,52.23
2019-01-31T12:36:17.710Z,78.10
2019-01-31T12:38:49.513Z,53.90
2019-01-31T12:41:21.284Z,57.90
2019-01-31T12:43:52.964Z,54.93
2019-01-31T12:46:24.639Z,54.33
2019-01-31T12:48:56.332Z,51.97
2019-01-31T12:51:28.015Z,50.30
2019-01-31T12:53:59.779Z,54.07
2019-01-31T12:56:31.550Z,71.30
2019-01-31T12:59:03.303Z,63.53
2019-01-31T13:01:34.992Z,58.83
2019-01-31T13:04:06.679Z,59.77
2019-01-31T13:06:38.364Z,53.00
2019-01-31T13:09:10.371Z,49.83
2019-01-31T13:11:42.046Z,50.60
2019-01-31T13:14:13.725Z,51.40
2019-01-31T13:16:45.480Z,55.33
2019-01-31T13:19:17.164Z,56.00
2019-01-31T13:21:48.831Z,47.77
2019-01-31T13:24:20.514Z,46.33
2019-01-31T13:26:52.322Z,45.47
2019-01-31T13:29:24.086Z,38.73
2019-01-31T13:31:55.783Z,43.57
2019-01-31T13:34:27.461Z,39.77
2019-01-31T13:36:59.176Z,40.40
2019-01-31T13:39:30.853Z,41.00
2019-01-31T13:42:02.564Z,37.70
2019-01-31T13:44:34.299Z,37.90
2019-01-31T13:47:06.230Z,34.23
2019-01-31T13:49:37.922Z,34.43
2019-01-31T13:52:11.201Z,36.50
2019-01-31T13:54:43.228Z,37.00
2019-01-31T13:57:14.896Z,33.37
2019-01-31T13:59:46.939Z,34.37
2019-01-31T14:02:18.626Z,30.83
2019-01-31T14:04:50.331Z,34.67
2019-01-31T14:07:22.038Z,36.43
2019-01-31T14:09:53.740Z,32.10
2019-01-31T14:12:25.540Z,32.53
2019-01-31T14:14:57.220Z,32.23
2019-01-31T14:17:29.398Z,31.70
2019-01-31T14:20:01.072Z,32.53
2019-01-31T14:22:42.836Z,33.23
2019-01-31T14:25:07.660Z,31.47
2019-01-31T14:27:39.353Z,33.33
2019-01-31T14:30:30.667Z,31.63
2019-01-31T14:33:02.733Z,28.93
2019-01-31T14:35:34.411Z,30.00
2019-01-31T14:38:06.880Z,27.20
2019-01-31T14:40:38.624Z,35.43
2019-01-31T14:43:10.338Z,29.40
2019-01-31T14:45:42.007Z,33.33
2019-01-31T14:48:13.684Z,32.23
2019-01-31T14:50:45.377Z,29.83
2019-01-31T14:53:17.040Z,30.23
2019-01-31T14:55:48.792Z,30.00
2019-01-31T14:58:20.543Z,27.47
2019-01-31T15:00:52.274Z,26.27
2019-01-31T15:03:23.943Z,29.37
2019-01-31T15:05:55.995Z,33.17
2019-01-31T15:08:27.671Z,30.67
2019-01-31T15:10:59.351Z,37.47
2019-01-31T15:13:31.448Z,31.33
2019-01-31T15:16:03.226Z,33.37
2019-01-31T15:18:34.880Z,34.07
2019-01-31T15:21:06.686Z,34.97
2019-01-31T15:23:38.356Z,29.73
2019-01-31T15:26:10.770Z,38.23
2019-01-31T15:28:42.440Z,35.20
2019-01-31T15:31:14.127Z,33.50
2019-01-31T15:33:46.204Z,38.23
2019-01-31T15:36:17.873Z,38.30
2019-01-31T15:38:49.590Z,38.63
2019-01-31T15:41:21.332Z,41.43
2019-01-31T15:43:53.020Z,35.73
2019-01-31T15:46:24.764Z,38.70
2019-01-31T15:48:56.449Z,40.67
2019-01-31T15:51:28.244Z,41.33
2019-01-31T15:53:59.880Z,43.20
2019-01-31T15:56:31.684Z,50.13
2019-01-31T15:59:03.694Z,51.37
2019-01-31T16:01:35.396Z,51.73
2019-01-31T16:04:07.062Z,55.83
2019-01-31T16:06:38.778Z,52.10
2019-01-31T16:09:10.720Z,54.97
2019-01-31T16:11:42.472Z,58.30
2019-01-31T16:14:14.212Z,51.13
2019-01-31T16:16:46.317Z,56.90
2019-01-31T16:19:18.285Z,54.20
2019-01-31T16:21:50.332Z,61.47
2019-01-31T16:24:22.010Z,60.77
2019-01-31T16:26:53.675Z,65.03
2019-01-31T16:29:25.375Z,62.70
2019-01-31T16:31:57.040Z,70.00
2019-01-31T16:34:29.034Z,66.60
2019-01-31T16:37:00.767Z,61.83
2019-01-31T16:39:32.454Z,72.63
2019-01-31T16:42:04.503Z,70.00
2019-01-31T16:44:36.172Z,71.73
2019-01-31T16:47:07.860Z,69.67
2019-01-31T16:49:39.557Z,74.23
2019-01-31T16:52:11.319Z,74.47
2019-01-31T16:54:44.065Z,65.20
2019-01-31T16:57:15.731Z,73.43
2019-01-31T16:59:47.738Z,73.87
2019-01-31T17:02:19.405Z,71.57
2019-01-31T17:04:51.206Z,67.33
2019-01-31T17:07:22.886Z,70.73
2019-01-31T17:09:54.577Z,67.73
2019-01-31T17:12:26.245Z,76.30
2019-01-31T17:14:57.923Z,74.63
2019-01-31T17:17:29.608Z,72.17
2019-01-31T17:20:01.280Z,74.80
2019-01-31T17:22:32.958Z,71.73
2019-01-31T17:25:08.408Z,77.00
2019-01-31T17:27:40.485Z,80.60
2019-01-31T17:30:21.802Z,79.67
2019-01-31T17:32:54.510Z,76.37
2019-01-31T17:35:26.490Z,76.57
2019-01-31T17:37:58.194Z,79.70
2019-01-31T17:40:37.003Z,77.97
2019-01-31T17:43:08.922Z,82.43
2019-01-31T17:45:40.610Z,77.33
2019-01-31T17:48:14.181Z,78.47
2019-01-31T17:50:45.859Z,86.73
2019-01-31T17:53:17.578Z,102.80
2019-01-31T17:55:49.631Z,91.60
2019-01-31T17:58:21.328Z,97.50
2019-01-31T18:00:54.663Z,85.57
2019-01-31T18:03:26.330Z,86.07
2019-01-31T18:05:58.097Z,84.13
2019-01-31T18:08:29.778Z,88.97
2019-01-31T18:11:01.452Z,98.27
2019-01-31T18:13:33.133Z,98.63
2019-01-31T18:16:04.822Z,101.50
2019-01-31T18:18:36.840Z,96.40
2019-01-31T18:21:08.794Z,110.97
2019-01-31T18:23:40.476Z,97.20
2019-01-31T18:26:12.239Z,102.10
2019-01-31T18:28:43.930Z,103.40
2019-01-31T18:31:15.941Z,99.87
2019-01-31T18:33:47.618Z,97.47
2019-01-31T18:36:19.327Z,106.43
2019-01-31T18:38:51.189Z,109.53
2019-01-31T18:41:22.963Z,103.00
2019-01-31T18:43:54.656Z,106.30
2019-01-31T18:46:26.358Z,111.77
2019-01-31T18:49:01.493Z,100.57
2019-01-31T18:51:33.175Z,105.93
2019-01-31T18:54:04.950Z,108.13
2019-01-31T18:56:36.935Z,115.73
2019-01-31T18:59:08.604Z,106.30
2019-01-31T19:01:40.645Z,109.20
2019-01-31T19:04:12.747Z,114.23
2019-01-31T19:06:44.455Z,111.07
2019-01-31T19:09:16.133Z,106.53
2019-01-31T19:11:47.895Z,115.13
2019-01-31T19:14:19.681Z,113.57
2019-01-31T19:16:51.418Z,107.70
2019-01-31T19:19:23.099Z,116.40
2019-01-31T19:21:54.858Z,116.87
2019-01-31T19:24:26.770Z,115.30
2019-01-31T19:26:58.743Z,110.17
2019-01-31T19:29:30.929Z,115.13
2019-01-31T19:32:02.599Z,117.07
2019-01-31T19:34:34.291Z,117.03
2019-01-31T19:37:06.012Z,111.73
2019-01-31T19:39:37.687Z,119.20
2019-01-31T19:42:09.402Z,119.23
2019-01-31T19:44:42.002Z,116.60
2019-01-31T19:47:14.245Z,118.57
2019-01-31T19:49:45.921Z,111.57
2019-01-31T19:52:17.970Z,109.33
2019-01-31T19:54:49.825Z,114.20
2019-01-31T19:57:21.893Z,109.23
2019-01-31T19:59:54.110Z,115.00
2019-01-31T20:02:25.843Z,111.73
2019-01-31T20:04:57.556Z,116.43
2019-01-31T20:07:29.326Z,119.13
2019-01-31T20:10:01.007Z,120.60
2019-01-31T20:12:34.594Z,115.97
2019-01-31T20:15:10.639Z,121.10
2019-01-31T20:17:42.326Z,116.20
2019-01-31T20:20:21.343Z,117.37
2019-01-31T20:22:55.287Z,114.43
2019-01-31T20:25:27.632Z,116.47
2019-01-31T20:27:59.361Z,124.17
2019-01-31T20:30:33.456Z,124.40
2019-01-31T20:33:06.477Z,118.53
2019-01-31T20:35:38.320Z,122.60
2019-01-31T20:38:09.988Z,119.23
2019-01-31T20:40:42.079Z,121.03
2019-01-31T20:43:13.888Z,116.50
2019-01-31T20:45:45.900Z,128.80
2019-01-31T20:48:18.849Z,124.33
2019-01-31T20:50:50.634Z,128.07
2019-01-31T20:53:22.616Z,122.97
2019-01-31T20:55:54.306Z,120.40
2019-01-31T20:58:26.328Z,117.97
2019-01-31T21:00:58.078Z,124.80
2019-01-31T21:03:30.262Z,126.33
2019-01-31T21:06:03.460Z,124.47
2019-01-31T21:08:36.079Z,120.77
2019-01-31T21:11:08.039Z,127.70
2019-01-31T21:13:39.804Z,131.37
2019-01-31T21:16:11.520Z,123.03
2019-01-31T21:18:43.671Z,128.80
2019-01-31T21:21:15.385Z,132.73
2019-01-31T21:23:47.065Z,128.77
2019-01-31T21:26:18.905Z,127.23
2019-01-31T21:28:51.023Z,122.63
2019-01-31T21:31:23.297Z,127.93
2019-01-31T21:33:54.986Z,123.60
2019-01-31T21:36:26.673Z,126.90
2019-01-31T21:38:58.373Z,128.83
2019-01-31T21:41:30.060Z,130.33
2019-01-31T21:44:01.779Z,130.23
2019-01-31T21:46:33.466Z,127.63
2019-01-31T21:49:05.158Z,132.80
2019-01-31T21:51:36.833Z,133.70
2019-01-31T21:54:08.553Z,125.13
2019-01-31T21:56:40.234Z,132.73
2019-01-31T21:59:11.928Z,122.70
2019-01-31T22:01:43.634Z,132.13
2019-01-31T22:04:15.313Z,128.93
2019-01-31T22:06:47.303Z,132.13
2019-01-31T22:09:18.971Z,132.30
2019-01-31T22:11:50.722Z,134.73
2019-01-31T22:14:22.397Z,137.47
2019-01-31T22:16:54.122Z,125.50
2019-01-31T22:19:25.800Z,138.03
2019-01-31T22:21:57.494Z,133.67
2019-01-31T22:24:29.242Z,134.23
2019-01-31T22:27:00.943Z,129.93
2019-01-31T22:29:32.630Z,123.20
2019-01-31T22:32:04.323Z,129.97
2019-01-31T22:34:36.488Z,134.20
2019-01-31T22:37:08.614Z,118.43
2019-01-31T22:39:40.326Z,125.03
2019-01-31T22:42:12.003Z,121.53
2019-01-31T22:44:43.724Z,128.10
2019-01-31T22:47:25.925Z,124.47
2019-01-31T22:49:49.159Z,129.07
2019-01-31T22:52:20.854Z,133.20
2019-01-31T22:54:52.541Z,122.60
2019-01-31T22:57:24.236Z,128.70
2019-01-31T22:59:55.915Z,134.83
2019-01-31T23:02:28.085Z,119.43
2019-01-31T23:04:59.769Z,131.77
2019-01-31T23:07:31.461Z,130.43
2019-01-31T23:10:03.411Z,129.10
2019-01-31T23:12:35.115Z,134.67
2019-01-31T23:15:10.311Z,127.67
2019-01-31T23:17:42.031Z,132.27
2019-01-31T23:20:16.401Z,131.40
2019-01-31T23:22:48.117Z,132.97
2019-01-31T23:25:19.862Z,123.40
2019-01-31T23:27:51.887Z,138.27
2019-01-31T23:30:24.574Z,133.57
2019-01-31T23:32:56.327Z,133.77
2019-01-31T23:35:28.023Z,133.13
2019-01-31T23:37:59.781Z,130.93
2019-01-31T23:40:31.465Z,126.17
2019-01-31T23:43:03.146Z,134.80
2019-01-31T23:45:34.851Z,143.83
2019-01-31T23:48:06.546Z,133.20
2019-01-31T23:50:38.237Z,144.57
2019-01-31T23:53:09.920Z,141.87
2019-01-31T23:55:41.690Z,129.63
2019-01-31T23:58:13.722Z,131.03
